Time;durP1;ratioP1;P1;durP2;ratioP2;P2;SDS_P1;SDS_P2;PMS_P1;PMS_P2;Temp;Humidity;BMP_temperature;BMP_pressure;BME280_temperature;BME280_humidity;BME280_pressure;Samples;Min_cycle;Max_cycle;Signal;HPM_P1;HPM_P2
2023/01/16 00:01:28;;;;;;;2.07;1.03;;;10.40;54.30;;;;;;5097159;28;20482;-70
2023/01/16 00:03:55;;;;;;;2.03;1.20;;;10.30;54.20;;;;;;5093863;28;20457;-70
2023/01/16 00:06:22;;;;;;;2.67;1.10;;;10.30;54.40;;;;;;5086119;28;20447;-70
2023/01/16 00:08:50;;;;;;;1.47;1.00;;;10.30;54.30;;;;;;5074052;28;20451;-69
2023/01/16 00:11:17;;;;;;;3.37;1.30;;;10.40;54.40;;;;;;5084110;28;20489;-69
2023/01/16 00:13:44;;;;;;;3.07;1.17;;;10.50;54.20;;;;;;5093311;28;20958;-70
2023/01/16 00:16:11;;;;;;;2.83;1.37;;;10.50;54.00;;;;;;5087589;28;20455;-69
2023/01/16 00:18:38;;;;;;;3.30;1.30;;;10.50;54.00;;;;;;5073147;28;20979;-69
2023/01/16 00:21:05;;;;;;;4.47;1.60;;;10.50;54.10;;;;;;5081878;28;20956;-70
2023/01/16 00:23:32;;;;;;;3.50;1.47;;;10.60;54.20;;;;;;5093669;28;20455;-70
2023/01/16 00:26:00;;;;;;;4.03;2.37;;;10.60;54.00;;;;;;5089564;28;20450;-70
2023/01/16 00:28:27;;;;;;;2.73;1.20;;;10.60;54.00;;;;;;5072840;28;20930;-70
2023/01/16 00:30:53;;;;;;;3.33;1.23;;;10.60;54.00;;;;;;5074243;28;20475;-69
2023/01/16 00:33:20;;;;;;;2.33;0.90;;;10.60;54.00;;;;;;5073756;28;20538;-70
2023/01/16 00:35:48;;;;;;;2.00;1.13;;;10.60;54.00;;;;;;5073414;28;20555;-69
2023/01/16 00:38:15;;;;;;;4.83;1.20;;;10.60;54.00;;;;;;5073176;28;20931;-70
2023/01/16 00:40:42;;;;;;;3.60;1.20;;;10.70;54.00;;;;;;5077663;28;20442;-68
2023/01/16 00:43:10;;;;;;;1.80;1.13;;;10.60;53.90;;;;;;5093800;28;20458;-69
2023/01/16 00:45:37;;;;;;;2.37;1.17;;;10.60;53.90;;;;;;5091720;28;20977;-69
2023/01/16 00:48:04;;;;;;;3.13;1.43;;;10.60;54.00;;;;;;5093906;28;20942;-69
2023/01/16 00:50:31;;;;;;;3.97;1.33;;;10.60;54.00;;;;;;5089401;28;20527;-69
2023/01/16 00:52:58;;;;;;;1.53;1.13;;;10.70;53.80;;;;;;5072998;28;20489;-70
2023/01/16 00:55:25;;;;;;;3.07;1.20;;;10.70;53.70;;;;;;5072777;28;20443;-70
2023/01/16 00:57:52;;;;;;;2.07;1.00;;;10.80;53.60;;;;;;5102670;28;20938;-69
2023/01/16 01:00:21;;;;;;;3.57;1.20;;;10.70;53.70;;;;;;5106786;28;20449;-69
2023/01/16 01:02:48;;;;;;;3.77;1.97;;;10.70;53.90;;;;;;5093018;28;20489;-69
2023/01/16 01:05:15;;;;;;;2.30;1.10;;;10.70;53.60;;;;;;5093217;28;20524;-69
2023/01/16 01:07:42;;;;;;;4.30;1.33;;;10.70;53.70;;;;;;5073282;28;20451;-70
2023/01/16 01:10:10;;;;;;;3.67;1.20;;;10.70;53.70;;;;;;5073086;28;20502;-70
2023/01/16 01:12:37;;;;;;;1.00;0.90;;;10.70;53.80;;;;;;5092101;28;20466;-69
2023/01/16 01:15:05;;;;;;;3.47;1.10;;;10.60;53.80;;;;;;5092746;28;21147;-70
2023/01/16 01:17:33;;;;;;;3.50;1.53;;;10.70;54.10;;;;;;5091478;28;20474;-69
2023/01/16 01:20:00;;;;;;;4.43;1.33;;;10.70;53.90;;;;;;5092809;28;20446;-69
2023/01/16 01:22:27;;;;;;;3.90;1.50;;;10.70;53.60;;;;;;5077151;28;20455;-69
2023/01/16 01:24:54;;;;;;;5.30;1.23;;;10.70;53.70;;;;;;5092882;28;20450;-69
2023/01/16 01:27:21;;;;;;;1.97;1.10;;;10.70;53.60;;;;;;5076403;28;20944;-70
2023/01/16 01:29:48;;;;;;;1.57;1.10;;;10.70;53.70;;;;;;5082996;28;20935;-70
2023/01/16 01:32:14;;;;;;;3.83;1.57;;;10.60;53.90;;;;;;5091742;28;20457;-69
2023/01/16 01:34:43;;;;;;;3.63;1.57;;;10.60;53.80;;;;;;5091760;28;20959;-69
2023/01/16 01:37:09;;;;;;;3.40;1.60;;;10.60;54.00;;;;;;5091814;28;20931;-69
2023/01/16 01:39:36;;;;;;;2.83;1.40;;;10.70;54.00;;;;;;5091992;28;20934;-69
2023/01/16 01:44:54;;;;;;;2.17;1.10;;;10.70;54.00;;;;;;5092003;28;20495;-69
2023/01/16 01:47:24;;;;;;;1.97;0.90;;;10.60;53.60;;;;;;5091867;28;20940;-69
2023/01/16 01:49:53;;;;;;;3.97;1.50;;;10.60;53.60;;;;;;5091768;28;20453;-69
2023/01/16 01:52:22;;;;;;;2.30;1.50;;;10.60;53.70;;;;;;5092057;28;20479;-69
2023/01/16 01:54:54;;;;;;;3.63;1.50;;;10.60;53.80;;;;;;5091458;28;20456;-69
2023/01/16 01:57:26;;;;;;;3.27;1.30;;;10.50;53.70;;;;;;5097471;28;20434;-70
2023/01/16 01:59:59;;;;;;;3.30;1.27;;;10.60;53.90;;;;;;5080744;28;20444;-69
2023/01/16 02:02:31;;;;;;;2.53;1.27;;;10.60;54.00;;;;;;5071129;28;20435;-69
2023/01/16 02:04:59;;;;;;;2.63;1.30;;;10.60;53.90;;;;;;5071648;28;20432;-69
2023/01/16 02:07:28;;;;;;;2.57;1.20;;;10.60;53.90;;;;;;5071750;28;20451;-69
2023/01/16 02:10:02;;;;;;;2.13;1.00;;;10.60;53.90;;;;;;5091213;28;20458;-69
2023/01/16 02:12:29;;;;;;;3.20;1.17;;;10.50;53.90;;;;;;5091781;28;20461;-69
2023/01/16 02:14:58;;;;;;;2.97;0.90;;;10.50;53.90;;;;;;5087228;28;20960;-69
2023/01/16 02:20:19;;;;;;;1.53;0.97;;;10.60;54.00;;;;;;5071361;28;20454;-69
2023/01/16 02:23:20;;;;;;;2.33;1.10;;;10.60;54.00;;;;;;5070986;28;20432;-69
2023/01/16 02:26:27;;;;;;;1.47;1.07;;;10.50;53.90;;;;;;5070998;28;20432;-70
2023/01/16 02:29:25;;;;;;;1.60;1.10;;;10.60;54.10;;;;;;5080395;28;20815;-69
2023/01/16 02:32:01;;;;;;;2.53;1.30;;;10.60;54.00;;;;;;5091094;28;20509;-70
2023/01/16 02:34:44;;;;;;;3.73;1.20;;;10.70;54.10;;;;;;5091882;28;20771;-68
2023/01/16 02:37:23;;;;;;;2.90;1.20;;;10.70;54.10;;;;;;5091549;28;20430;-70
2023/01/16 02:40:01;;;;;;;2.00;1.00;;;10.70;54.10;;;;;;5089031;28;20516;-69
2023/01/16 02:42:34;;;;;;;1.13;1.00;;;10.80;54.10;;;;;;5076215;28;21054;-70
2023/01/16 02:45:06;;;;;;;1.97;1.10;;;10.80;53.90;;;;;;5072029;28;20447;-70
2023/01/16 02:47:42;;;;;;;2.47;1.30;;;10.80;53.80;;;;;;5070592;28;20440;-70
2023/01/16 02:50:17;;;;;;;4.20;1.43;;;10.90;53.80;;;;;;5071421;28;20457;-70
2023/01/16 02:52:48;;;;;;;2.67;1.00;;;10.90;53.50;;;;;;5070183;28;20478;-70
2023/01/16 02:55:23;;;;;;;1.80;0.90;;;10.90;53.50;;;;;;5071607;28;20428;-69
2023/01/16 02:57:56;;;;;;;2.23;1.30;;;11.00;53.50;;;;;;5087927;28;20441;-69
2023/01/16 03:00:23;;;;;;;1.37;0.80;;;11.00;53.30;;;;;;5087878;28;21214;-70
2023/01/16 03:02:51;;;;;;;2.43;1.10;;;11.10;53.40;;;;;;5070528;28;20447;-70
2023/01/16 03:05:19;;;;;;;2.23;1.13;;;11.10;53.20;;;;;;5071447;28;20455;-70
2023/01/16 03:08:07;;;;;;;1.73;1.10;;;11.10;53.00;;;;;;5070114;28;20458;-68
2023/01/16 03:10:56;;;;;;;1.53;1.00;;;11.10;53.10;;;;;;5070940;28;20840;-69
2023/01/16 03:13:37;;;;;;;1.03;0.90;;;11.10;52.90;;;;;;5060897;28;20837;-70
2023/01/16 03:16:15;;;;;;;3.47;1.00;;;11.10;53.10;;;;;;5074876;28;20431;-69
2023/01/16 03:18:51;;;;;;;1.43;0.93;;;11.10;53.00;;;;;;5074654;28;20484;-69
2023/01/16 03:21:29;;;;;;;2.27;1.30;;;11.10;52.90;;;;;;5086213;28;20439;-70
2023/01/16 03:23:58;;;;;;;3.57;1.40;;;11.00;53.10;;;;;;5089032;28;20435;-69
2023/01/16 03:26:29;;;;;;;1.87;1.20;;;11.00;53.10;;;;;;5075215;28;20969;-68
2023/01/16 03:29:07;;;;;;;3.00;1.47;;;11.00;53.10;;;;;;5094682;28;20478;-70
2023/01/16 03:31:42;;;;;;;2.87;1.20;;;11.10;53.30;;;;;;5080742;28;20832;-70
2023/01/16 03:34:20;;;;;;;1.60;1.00;;;11.10;53.20;;;;;;5074942;28;20431;-70
2023/01/16 03:36:53;;;;;;;4.20;1.10;;;11.20;53.20;;;;;;5085154;28;20957;-70
2023/01/16 03:39:23;;;;;;;1.90;0.90;;;11.10;53.00;;;;;;5074787;28;20458;-69
2023/01/16 03:41:54;;;;;;;3.93;1.20;;;11.10;53.10;;;;;;5074361;28;20804;-70
2023/01/16 03:44:29;;;;;;;3.30;1.87;;;11.20;53.00;;;;;;5074565;28;20910;-68
2023/01/16 03:46:59;;;;;;;1.43;1.00;;;11.20;52.90;;;;;;5074073;28;20518;-69
2023/01/16 03:49:31;;;;;;;4.67;1.30;;;11.30;52.70;;;;;;5074429;28;20440;-70
2023/01/16 03:52:01;;;;;;;2.00;1.00;;;11.30;52.70;;;;;;5089423;28;20554;-70
2023/01/16 03:54:36;;;;;;;2.00;1.10;;;11.40;52.70;;;;;;5080003;28;20947;-68
2023/01/16 03:57:10;;;;;;;2.63;1.40;;;11.50;52.80;;;;;;5081020;28;20446;-69
2023/01/16 03:59:39;;;;;;;2.50;1.20;;;11.50;52.80;;;;;;5076371;28;20440;-68
2023/01/16 04:02:12;;;;;;;3.40;1.10;;;11.60;52.80;;;;;;5074223;28;20831;-69
2023/01/16 04:04:45;;;;;;;1.53;1.10;;;11.60;53.30;;;;;;5073277;28;20458;-68
2023/01/16 04:07:20;;;;;;;5.17;1.27;;;11.60;52.80;;;;;;5074309;28;20518;-69
2023/01/16 04:09:54;;;;;;;3.80;1.30;;;11.60;52.60;;;;;;5073429;28;20434;-70
2023/01/16 04:12:24;;;;;;;2.20;0.80;;;11.70;52.60;;;;;;5091026;28;20581;-70
2023/01/16 04:14:59;;;;;;;1.30;0.90;;;11.70;52.60;;;;;;5073105;28;20458;-69
2023/01/16 04:17:27;;;;;;;2.87;1.30;;;11.70;52.60;;;;;;5074118;28;20558;-70
2023/01/16 04:19:55;;;;;;;3.50;1.27;;;11.70;52.70;;;;;;5073281;28;20473;-68
2023/01/16 04:22:24;;;;;;;1.80;1.07;;;11.70;52.70;;;;;;5074158;28;20444;-69
2023/01/16 04:24:53;;;;;;;2.33;0.83;;;11.70;52.80;;;;;;5072225;28;20447;-69
2023/01/16 04:27:20;;;;;;;1.83;1.07;;;11.70;52.80;;;;;;5073829;28;20451;-69
2023/01/16 04:29:47;;;;;;;3.30;1.10;;;11.70;52.90;;;;;;5073500;28;20451;-69
2023/01/16 04:32:14;;;;;;;3.60;1.40;;;11.60;52.80;;;;;;5091011;28;20485;-69
2023/01/16 04:34:41;;;;;;;1.83;1.20;;;11.60;52.80;;;;;;5093248;28;20468;-70
2023/01/16 04:37:12;;;;;;;2.60;1.17;;;11.60;52.90;;;;;;5093784;28;20450;-69
2023/01/16 04:39:40;;;;;;;1.90;1.10;;;11.60;52.90;;;;;;5093209;28;20438;-69
2023/01/16 04:42:07;;;;;;;1.33;0.80;;;11.60;52.90;;;;;;5081886;28;20462;-70
2023/01/16 04:44:34;;;;;;;1.20;0.90;;;11.60;53.00;;;;;;5093731;28;20450;-69
2023/01/16 04:47:01;;;;;;;5.03;1.57;;;11.70;53.10;;;;;;5093149;28;20450;-69
2023/01/16 04:49:27;;;;;;;3.13;1.20;;;11.60;53.00;;;;;;5093275;28;20459;-70
2023/01/16 04:51:54;;;;;;;2.37;1.13;;;11.60;53.10;;;;;;5082459;28;20479;-70
2023/01/16 04:54:23;;;;;;;2.90;1.17;;;11.60;53.10;;;;;;5093428;28;20423;-69
2023/01/16 04:56:49;;;;;;;3.13;1.20;;;11.60;53.30;;;;;;5093329;28;20955;-69
2023/01/16 04:59:17;;;;;;;2.33;0.93;;;11.60;53.50;;;;;;5081684;28;20451;-69
2023/01/16 05:01:44;;;;;;;2.00;1.10;;;11.60;53.50;;;;;;5072971;28;20451;-70
2023/01/16 05:04:14;;;;;;;1.83;1.40;;;11.60;53.60;;;;;;5073178;28;20447;-70
2023/01/16 05:06:41;;;;;;;2.83;1.17;;;11.60;53.60;;;;;;5072501;28;20463;-69
2023/01/16 05:09:08;;;;;;;2.30;1.13;;;11.60;53.70;;;;;;5073147;28;20451;-70
2023/01/16 05:11:37;;;;;;;3.37;1.07;;;11.60;53.90;;;;;;5083805;28;20486;-70
2023/01/16 05:14:07;;;;;;;1.77;1.00;;;11.50;53.60;;;;;;5076750;28;20444;-69
2023/01/16 05:16:34;;;;;;;1.27;1.17;;;11.50;53.70;;;;;;5072836;28;20435;-69
2023/01/16 05:19:00;;;;;;;1.83;1.20;;;11.40;54.50;;;;;;5072117;28;20463;-70
2023/01/16 05:21:27;;;;;;;3.47;1.20;;;11.30;54.00;;;;;;5072999;28;20440;-70
2023/01/16 05:23:54;;;;;;;2.53;1.20;;;11.30;54.20;;;;;;5072178;28;20443;-68
2023/01/16 05:26:21;;;;;;;2.07;0.97;;;11.20;54.30;;;;;;5072567;28;20455;-70
2023/01/16 05:28:49;;;;;;;3.50;1.40;;;11.20;54.30;;;;;;5086692;28;20451;-70
2023/01/16 05:31:17;;;;;;;1.50;0.97;;;11.10;54.40;;;;;;5091866;28;20962;-68
2023/01/16 05:33:44;;;;;;;3.43;1.17;;;11.00;54.30;;;;;;5092208;28;20517;-70
2023/01/16 05:36:11;;;;;;;3.07;1.00;;;11.00;54.50;;;;;;5092405;28;20446;-69
2023/01/16 05:38:38;;;;;;;3.73;1.20;;;10.90;54.40;;;;;;5092752;28;20451;-69
2023/01/16 05:41:05;;;;;;;4.07;1.53;;;10.90;54.70;;;;;;5086480;28;20454;-69
2023/01/16 05:43:31;;;;;;;2.07;1.13;;;10.80;54.50;;;;;;5083251;28;20458;-70
2023/01/16 05:46:00;;;;;;;1.47;0.90;;;10.70;54.60;;;;;;5092224;28;20542;-69
2023/01/16 05:48:28;;;;;;;1.10;0.90;;;10.60;54.60;;;;;;5092334;28;20533;-69
2023/01/16 05:50:57;;;;;;;1.20;1.10;;;10.60;54.80;;;;;;5090879;28;20450;-69
2023/01/16 05:53:27;;;;;;;3.30;1.13;;;10.50;54.80;;;;;;5092071;28;20482;-69
2023/01/16 05:55:55;;;;;;;3.27;1.20;;;10.50;55.00;;;;;;5091672;28;20431;-70
2023/01/16 05:58:22;;;;;;;1.17;1.00;;;10.50;54.80;;;;;;5093477;28;20446;-70
2023/01/16 06:00:48;;;;;;;1.90;1.07;;;10.50;54.90;;;;;;5090286;28;20452;-70
2023/01/16 06:03:17;;;;;;;3.40;1.40;;;10.50;54.90;;;;;;5092036;28;20878;-68
2023/01/16 06:05:44;;;;;;;2.70;1.20;;;10.60;54.90;;;;;;5091776;28;20450;-69
2023/01/16 06:08:11;;;;;;;3.20;1.17;;;10.60;54.60;;;;;;5091895;28;20947;-69
2023/01/16 06:10:38;;;;;;;4.33;1.17;;;10.50;54.60;;;;;;5091040;28;20450;-69
2023/01/16 06:13:05;;;;;;;2.73;1.53;;;10.50;54.70;;;;;;5072819;28;20483;-69
2023/01/16 06:15:32;;;;;;;1.93;1.20;;;10.50;54.70;;;;;;5085749;28;20461;-70
2023/01/16 06:17:59;;;;;;;1.47;1.00;;;10.50;55.20;;;;;;5091234;28;20467;-68
2023/01/16 06:20:27;;;;;;;0.97;0.87;;;10.60;54.50;;;;;;5092075;28;20485;-68
2023/01/16 06:22:54;;;;;;;1.53;0.83;;;10.60;54.40;;;;;;5090267;28;20938;-70
2023/01/16 06:25:21;;;;;;;1.00;0.90;;;10.60;54.40;;;;;;5091688;28;20442;-69
2023/01/16 06:27:49;;;;;;;2.83;1.33;;;10.40;54.30;;;;;;5091225;28;20553;-69
2023/01/16 06:30:17;;;;;;;0.73;0.73;;;10.40;54.50;;;;;;5088944;28;20447;-69
2023/01/16 06:32:44;;;;;;;2.37;1.20;;;10.40;54.60;;;;;;5073901;28;20479;-69
2023/01/16 06:35:11;;;;;;;2.50;1.17;;;10.40;54.60;;;;;;5075634;28;20498;-69
2023/01/16 06:37:39;;;;;;;2.17;1.20;;;10.30;54.60;;;;;;5071449;28;20808;-69
2023/01/16 06:40:08;;;;;;;2.53;1.07;;;10.40;54.70;;;;;;5071130;28;20447;-69
2023/01/16 06:42:34;;;;;;;2.20;1.20;;;10.40;54.60;;;;;;5078343;28;20473;-69
2023/01/16 06:45:01;;;;;;;2.17;1.20;;;10.40;54.60;;;;;;5089748;28;20455;-70
2023/01/16 06:47:28;;;;;;;3.13;1.30;;;10.50;54.60;;;;;;5085625;28;20455;-68
2023/01/16 06:49:55;;;;;;;2.33;1.23;;;10.50;54.60;;;;;;5070371;28;21058;-68
2023/01/16 06:52:22;;;;;;;2.10;1.30;;;10.50;54.60;;;;;;5070759;28;21077;-70
2023/01/16 06:54:50;;;;;;;3.03;1.47;;;10.50;54.40;;;;;;5076733;28;20451;-68
2023/01/16 06:57:17;;;;;;;1.57;1.20;;;10.50;54.40;;;;;;5080974;28;20473;-69
2023/01/16 06:59:44;;;;;;;3.43;1.30;;;10.50;54.40;;;;;;5110997;28;20499;-69
2023/01/16 07:02:11;;;;;;;4.47;1.30;;;10.40;54.20;;;;;;5088545;28;20483;-68
2023/01/16 07:04:38;;;;;;;2.93;1.57;;;10.40;54.20;;;;;;5074964;28;20822;-68
2023/01/16 07:07:04;;;;;;;1.93;1.20;;;10.40;54.20;;;;;;5090705;28;20481;-70
2023/01/16 07:09:32;;;;;;;2.60;1.20;;;10.30;54.30;;;;;;5086562;28;20541;-71
2023/01/16 07:12:00;;;;;;;2.07;0.90;;;10.10;54.20;;;;;;5088896;28;20559;-71
2023/01/16 07:22:43;;;;;;;1.43;1.23;;;10.30;54.30;;;;;;5071079;28;20461;-70
2023/01/16 07:25:13;;;;;;;2.47;1.20;;;10.30;54.30;;;;;;5073415;28;20455;-71
2023/01/16 07:27:42;;;;;;;1.53;1.43;;;10.20;54.30;;;;;;5090533;28;20446;-72
2023/01/16 07:30:11;;;;;;;2.33;1.63;;;10.10;54.30;;;;;;5089320;28;20454;-70
2023/01/16 07:32:39;;;;;;;2.47;1.37;;;10.00;54.50;;;;;;5078750;28;20478;-71
2023/01/16 07:35:07;;;;;;;2.07;1.13;;;10.00;54.80;;;;;;5053191;28;20443;-73
2023/01/16 07:37:34;;;;;;;1.20;1.10;;;10.00;54.60;;;;;;5070956;28;20483;-71
2023/01/16 07:40:01;;;;;;;1.53;1.20;;;10.00;55.20;;;;;;5070321;28;20837;-71
2023/01/16 07:42:27;;;;;;;1.90;1.20;;;10.00;54.60;;;;;;5069900;28;20459;-73
2023/01/16 07:44:56;;;;;;;1.90;1.33;;;10.00;54.40;;;;;;5071599;28;20451;-71
2023/01/16 07:47:23;;;;;;;2.40;1.00;;;10.00;54.90;;;;;;5082023;28;20944;-71
2023/01/16 07:49:49;;;;;;;2.00;1.20;;;10.10;54.50;;;;;;5078149;28;20443;-71
2023/01/16 07:52:16;;;;;;;1.40;1.10;;;10.10;54.40;;;;;;5090593;28;20496;-71
2023/01/16 07:54:44;;;;;;;2.77;1.23;;;10.10;54.20;;;;;;5080435;28;20546;-71
2023/01/16 07:57:11;;;;;;;1.93;1.20;;;10.20;54.10;;;;;;5079955;28;20548;-72
2023/01/16 07:59:38;;;;;;;1.33;1.20;;;10.30;54.40;;;;;;5108110;28;21016;-72
2023/01/16 08:02:06;;;;;;;1.20;1.00;;;10.30;53.80;;;;;;5077157;28;20846;-71
2023/01/16 08:04:33;;;;;;;1.70;1.30;;;10.30;53.80;;;;;;5085959;28;20790;-70
2023/01/16 08:07:00;;;;;;;2.70;1.10;;;10.30;53.80;;;;;;5092742;28;20946;-71
2023/01/16 08:09:27;;;;;;;1.67;1.00;;;10.30;53.80;;;;;;5093776;28;20848;-72
2023/01/16 08:11:54;;;;;;;1.97;1.27;;;10.30;53.70;;;;;;5092695;28;20446;-72
2023/01/16 08:14:21;;;;;;;2.67;1.33;;;10.30;53.50;;;;;;5093160;28;21005;-72
2023/01/16 08:16:48;;;;;;;2.00;1.10;;;10.30;53.80;;;;;;5092747;28;20820;-72
2023/01/16 08:19:16;;;;;;;1.83;1.33;;;10.30;53.70;;;;;;5092371;28;20494;-72
2023/01/16 08:21:43;;;;;;;1.40;1.10;;;10.30;53.30;;;;;;5081441;28;20451;-71
2023/01/16 08:24:12;;;;;;;1.47;1.13;;;10.40;53.30;;;;;;5073311;28;20459;-72
2023/01/16 08:26:39;;;;;;;3.03;1.40;;;10.40;53.40;;;;;;5074070;28;20447;-72
2023/01/16 08:29:07;;;;;;;2.10;1.10;;;10.40;53.40;;;;;;5073325;28;20461;-73
2023/01/16 08:31:34;;;;;;;1.63;1.03;;;10.40;53.30;;;;;;5073666;28;20479;-72
2023/01/16 08:34:01;;;;;;;1.40;1.30;;;10.40;53.10;;;;;;5072878;28;20490;-71
2023/01/16 08:36:29;;;;;;;2.40;1.33;;;10.50;53.40;;;;;;5055946;28;20447;-71
2023/01/16 08:38:56;;;;;;;2.33;1.20;;;10.50;53.20;;;;;;5080495;28;20809;-71
2023/01/16 08:52:31;;;;;;;1.30;1.13;;;10.60;53.30;;;;;;5067001;28;20518;-72
2023/01/16 08:54:58;;;;;;;2.90;1.20;;;10.50;52.90;;;;;;5083102;28;20868;-72
2023/01/16 08:57:26;;;;;;;2.43;1.10;;;10.50;53.10;;;;;;5084924;28;20445;-73
2023/01/16 08:59:52;;;;;;;1.90;0.60;;;10.40;53.80;;;;;;5113271;28;20532;-72
2023/01/16 09:02:20;;;;;;;1.70;1.00;;;10.40;54.80;;;;;;5113642;28;20481;-70
2023/01/16 09:04:47;;;;;;;0.97;0.63;;;10.50;55.10;;;;;;5113660;28;20522;-70
2023/01/16 09:07:14;;;;;;;0.70;0.60;;;10.60;54.50;;;;;;5113949;28;20528;-71
2023/01/16 09:09:43;;;;;;;0.77;0.50;;;10.70;54.10;;;;;;5101032;28;20542;-71
2023/01/16 09:14:56;;;;;;;0.70;0.60;;;10.90;53.80;;;;;;5071902;28;20414;-71
2023/01/16 09:17:24;;;;;;;0.60;0.60;;;10.90;52.80;;;;;;5072430;28;20468;-72
2023/01/16 09:19:51;;;;;;;0.50;0.50;;;11.00;52.30;;;;;;5071673;28;20447;-72
2023/01/16 09:22:18;;;;;;;1.77;1.00;;;11.10;52.50;;;;;;5072359;28;20445;-73
2023/01/16 09:24:47;;;;;;;1.50;0.87;;;11.10;52.30;;;;;;5072613;28;20479;-73
2023/01/16 09:27:14;;;;;;;1.20;1.10;;;11.20;52.10;;;;;;5087371;28;21105;-73
2023/01/16 09:29:41;;;;;;;0.87;0.70;;;11.20;52.40;;;;;;5092522;28;20453;-73
2023/01/16 09:32:08;;;;;;;1.03;0.80;;;11.20;52.10;;;;;;5092256;28;20446;-72
2023/01/16 09:34:36;;;;;;;0.60;0.60;;;11.20;51.90;;;;;;5092364;28;20540;-72
2023/01/16 09:37:04;;;;;;;0.70;0.70;;;11.20;51.50;;;;;;5090935;28;20454;-74
2023/01/16 09:39:31;;;;;;;1.47;0.60;;;11.30;51.50;;;;;;5091824;28;20446;-73
2023/01/16 09:45:03;;;;;;;1.73;1.00;;;11.40;51.40;;;;;;5091668;28;20430;-71
2023/01/16 09:47:31;;;;;;;2.57;1.17;;;11.40;51.70;;;;;;5090906;28;20443;-73
2023/01/16 09:50:03;;;;;;;1.60;1.10;;;11.30;51.90;;;;;;5073306;28;20451;-73
2023/01/16 09:58:38;;;;;;;1.33;1.07;;;11.20;52.40;;;;;;5083204;28;20844;-73
2023/01/16 10:01:08;;;;;;;1.30;1.10;;;11.10;52.70;;;;;;5071136;28;20424;-72
2023/01/16 10:03:41;;;;;;;1.23;1.13;;;11.10;52.60;;;;;;5071778;28;20935;-73
2023/01/16 10:06:24;;;;;;;1.43;1.20;;;11.10;52.70;;;;;;5071003;28;20526;-73
2023/01/16 10:09:14;;;;;;;1.30;1.17;;;11.20;52.90;;;;;;5055536;28;20430;-72
2023/01/16 10:11:44;;;;;;;1.40;1.30;;;11.10;52.90;;;;;;5071447;28;20498;-73
2023/01/16 10:14:32;;;;;;;1.13;1.03;;;11.10;53.40;;;;;;5088210;28;20478;-73
2023/01/16 10:17:14;;;;;;;1.03;0.90;;;11.10;53.80;;;;;;5055465;28;20529;-73
2023/01/16 10:19:51;;;;;;;1.53;1.30;;;11.00;54.30;;;;;;5092014;28;20434;-73
2023/01/16 10:22:32;;;;;;;1.27;1.10;;;11.00;54.70;;;;;;5091023;28;20430;-73
2023/01/16 10:25:32;;;;;;;1.37;1.20;;;11.00;54.90;;;;;;5091393;28;20434;-73
2023/01/16 10:28:13;;;;;;;2.23;1.13;;;11.10;54.70;;;;;;5079990;28;20451;-73
2023/01/16 10:30:48;;;;;;;1.30;1.20;;;11.00;54.70;;;;;;5071607;28;20462;-73
2023/01/16 10:33:20;;;;;;;1.73;1.07;;;11.00;54.90;;;;;;5070804;28;20467;-73
2023/01/16 10:35:50;;;;;;;1.97;1.37;;;10.90;54.80;;;;;;5071054;28;20435;-73
2023/01/16 10:38:27;;;;;;;1.20;1.10;;;11.00;55.20;;;;;;5071024;28;20443;-73
2023/01/16 10:40:55;;;;;;;0.90;0.90;;;11.00;55.30;;;;;;5070598;28;20828;-73
2023/01/16 10:49:29;;;;;;;1.57;1.10;;;11.00;55.30;;;;;;5065725;28;20443;-73
2023/01/16 10:51:58;;;;;;;1.43;1.07;;;10.80;55.60;;;;;;5070735;28;20796;-74
2023/01/16 10:54:25;;;;;;;1.87;1.00;;;10.80;55.70;;;;;;5071334;28;20818;-72
2023/01/16 11:22:58;;;;;;;0.93;0.77;;;10.80;56.10;;;;;;4938469;28;20540;-73
2023/01/16 11:25:27;;;;;;;1.57;0.80;;;10.80;56.10;;;;;;5094916;28;20192;-73
2023/01/16 11:28:02;;;;;;;1.20;1.07;;;10.90;56.30;;;;;;5095870;28;20472;-73
2023/01/16 11:30:32;;;;;;;1.00;0.80;;;11.00;56.10;;;;;;5070155;28;20439;-72
2023/01/16 11:32:59;;;;;;;1.80;0.97;;;11.00;55.90;;;;;;5107858;28;20470;-73
2023/01/16 11:35:32;;;;;;;0.90;0.90;;;11.00;56.20;;;;;;5114717;28;20509;-73
2023/01/16 11:38:02;;;;;;;0.70;0.70;;;11.10;56.20;;;;;;5111741;28;20787;-73
2023/01/16 11:40:33;;;;;;;0.80;0.63;;;11.10;56.30;;;;;;5104824;28;20441;-73
2023/01/16 11:46:11;;;;;;;1.23;0.80;;;11.20;56.10;;;;;;5091801;28;20510;-73
2023/01/16 11:48:40;;;;;;;1.63;0.90;;;11.30;56.20;;;;;;5083585;28;20446;-73
2023/01/16 11:51:11;;;;;;;1.37;1.10;;;11.40;55.90;;;;;;5094677;28;20445;-73
2023/01/16 11:53:39;;;;;;;0.90;0.90;;;11.50;55.80;;;;;;5077087;28;20833;-73
2023/01/16 11:56:24;;;;;;;1.03;0.93;;;11.70;55.60;;;;;;5094581;28;20453;-71
2023/01/16 11:59:07;;;;;;;1.30;0.80;;;11.80;55.50;;;;;;5084936;28;20783;-73
2023/01/16 12:05:53;;;;;;;0.90;0.90;;;11.80;55.20;;;;;;5074588;28;20534;-73
2023/01/16 12:07:39;;;;;;;0.93;0.70;;;11.90;55.40;;;;;;5090235;28;20539;-73
2023/01/16 12:10:20;;;;;;;0.93;0.93;;;12.00;55.20;;;;;;5094955;28;20426;-73
2023/01/16 12:15:48;;;;;;;1.10;0.90;;;12.00;55.10;;;;;;5074633;28;20419;-73
2023/01/16 12:18:22;;;;;;;2.13;1.10;;;12.10;55.20;;;;;;5073554;28;20918;-71
2023/01/16 12:20:55;;;;;;;1.20;1.10;;;12.20;55.20;;;;;;5080181;28;20497;-73
2023/01/16 12:23:57;;;;;;;1.57;0.97;;;12.40;55.00;;;;;;5076212;28;20475;-72
2023/01/16 12:26:29;;;;;;;1.07;0.97;;;12.40;54.70;;;;;;5073542;28;20961;-73
2023/01/16 12:29:13;;;;;;;2.30;0.80;;;12.50;54.70;;;;;;5074431;28;20775;-73
2023/01/16 12:31:54;;;;;;;0.60;0.60;;;12.50;54.60;;;;;;5085614;28;20438;-73
2023/01/16 12:34:55;;;;;;;1.30;1.10;;;12.80;54.60;;;;;;5093459;28;20557;-73
2023/01/16 12:37:34;;;;;;;0.80;0.80;;;13.40;53.90;;;;;;5094140;28;20429;-73
2023/01/16 12:40:26;;;;;;;1.00;0.90;;;13.60;53.00;;;;;;5091702;28;20448;-73
2023/01/16 12:43:18;;;;;;;0.67;0.67;;;13.80;52.80;;;;;;5073202;28;20450;-73
2023/01/16 12:45:54;;;;;;;0.50;0.50;;;14.50;52.20;;;;;;5073283;28;20916;-73
2023/01/16 12:48:51;;;;;;;0.37;0.37;;;14.80;49.70;;;;;;5073250;28;20791;-71
2023/01/16 12:51:39;;;;;;;4.03;0.60;;;15.50;47.20;;;;;;5085763;28;20445;-73
2023/01/16 12:54:34;;;;;;;0.40;0.40;;;16.80;45.30;;;;;;5093696;28;20815;-73
2023/01/16 12:57:25;;;;;;;0.37;0.37;;;16.20;44.30;;;;;;5094115;28;20438;-74
2023/01/16 12:59:59;;;;;;;0.40;0.40;;;16.30;44.70;;;;;;5089396;28;20450;-73
2023/01/16 13:02:34;;;;;;;0.37;0.37;;;16.60;44.80;;;;;;5083116;28;20453;-73
2023/01/16 13:05:04;;;;;;;0.30;0.30;;;17.20;44.00;;;;;;5073478;28;20427;-73
2023/01/16 13:07:36;;;;;;;0.60;0.30;;;18.10;42.90;;;;;;5073057;28;20869;-73
2023/01/16 13:16:24;;;;;;;0.40;0.40;;;16.80;42.90;;;;;;5011557;28;20430;-73
2023/01/16 13:18:54;;;;;;;1.43;0.57;;;15.80;43.60;;;;;;5009511;28;20446;-73
2023/01/16 13:21:28;;;;;;;0.50;0.50;;;15.20;44.50;;;;;;5061041;28;20453;-73
2023/01/16 13:23:59;;;;;;;1.30;0.60;;;14.80;45.20;;;;;;5093247;28;20474;-73
2023/01/16 13:26:27;;;;;;;0.50;0.50;;;14.50;45.70;;;;;;5092946;28;20830;-72
2023/01/16 13:29:00;;;;;;;0.47;0.47;;;14.30;46.30;;;;;;5093533;28;20447;-73
2023/01/16 13:31:33;;;;;;;0.43;0.43;;;13.90;46.30;;;;;;5095435;28;20783;-72
2023/01/16 13:34:07;;;;;;;0.50;0.50;;;13.70;46.70;;;;;;5113821;28;20519;-72
2023/01/16 13:37:11;;;;;;;0.60;0.53;;;13.50;47.50;;;;;;5113494;28;20433;-73
2023/01/16 13:40:05;;;;;;;0.30;0.30;;;13.30;47.20;;;;;;5113107;28;20603;-73
2023/01/16 13:42:33;;;;;;;0.40;0.40;;;13.30;47.10;;;;;;5072615;28;20813;-73
2023/01/16 13:47:53;;;;;;;0.70;0.70;;;13.20;47.90;;;;;;5088162;28;20430;-73
2023/01/16 13:50:25;;;;;;;0.50;0.50;;;13.10;47.90;;;;;;5091774;28;20931;-74
2023/01/16 13:52:55;;;;;;;0.60;0.60;;;13.00;48.00;;;;;;5092781;28;20450;-73
2023/01/16 13:55:29;;;;;;;1.03;0.53;;;13.20;48.30;;;;;;5092477;28;20535;-72
2023/01/16 13:57:57;;;;;;;0.87;0.60;;;13.30;48.30;;;;;;5091804;28;21003;-74
2023/01/16 14:00:25;;;;;;;0.67;0.50;;;13.40;48.00;;;;;;5091376;28;20451;-72
2023/01/16 14:03:18;;;;;;;0.40;0.40;;;13.50;47.80;;;;;;5093242;28;20451;-73
2023/01/16 14:05:49;;;;;;;0.43;0.43;;;14.20;47.10;;;;;;5092819;28;20443;-74
2023/01/16 14:11:25;;;;;;;0.60;0.60;;;14.50;46.10;;;;;;5091437;28;20434;-74
2023/01/16 14:17:18;;;;;;;0.47;0.40;;;14.50;45.40;;;;;;5072434;28;20415;-73
2023/01/16 14:19:59;;;;;;;1.07;0.70;;;14.20;46.00;;;;;;5072133;28;20467;-73
2023/01/16 14:25:22;;;;;;;1.43;1.13;;;13.80;46.80;;;;;;5091739;28;20778;-73
2023/01/16 14:27:54;;;;;;;1.83;1.00;;;13.60;46.50;;;;;;5092618;28;20474;-72
2023/01/16 14:30:25;;;;;;;3.47;2.30;;;13.40;47.50;;;;;;5090613;28;20430;-73
2023/01/16 14:32:55;;;;;;;1.53;1.43;;;13.30;47.40;;;;;;5111238;28;20442;-73
2023/01/16 14:35:26;;;;;;;0.63;0.57;;;13.30;47.80;;;;;;5112058;28;20488;-73
2023/01/16 14:37:59;;;;;;;0.70;0.70;;;13.30;47.60;;;;;;5112505;28;20439;-73
2023/01/16 14:55:44;;;;;;;0.47;0.47;;;12.80;49.80;;;;;;5091602;28;20619;-72
2023/01/16 14:58:14;;;;;;;0.60;0.50;;;12.70;50.70;;;;;;5092215;28;20538;-72
2023/01/16 15:00:42;;;;;;;1.37;0.40;;;12.50;51.50;;;;;;5089001;28;20447;-72